Tiempo atmosférico en la estación meteorológica de Barcelona Aeropuerto, Barcelona (4 m.)



Fecha
DESCASC
Temp. máxima en grados centígrados (hora)
DESCASC
Temp. mínima en grados centígrados (hora)
DESCASC
Temp. media en grados centígrados
DESCASC
Racha de viento máxima en m/sg (hora)
DESCASC
Velocidad máxima media en intervalos de 10 minutos(hora)
DESCASC
Precipitaciones diarias en mm
DESCASC
Precipitaciones de 00:00 a 06:00 en mm
DESCASC
Precipitaciones de 06:00 a 12:00 en mm
DESCASC
Precipitaciones de 12:00 a 18:00 en mm
DESCASC
Precipitaciones de 18:00 a 24:00 en mm
DESCASC
17-02-2019 15.3 (12:50) 3.8 (07:40) 9.6 8.89 (01:30) 6.11 (08:20) 0 0 0 0 0
16-02-2019 16.6 (13:10) 3.6 (07:50) 10.1 11.39 (22:30) 6.39 (08:30) 0 0 0 0 0
15-02-2019 -- (--) -- (--) -- -- (--) -- (--) -- 0 0 0 --
14-02-2019 14.1 (13:30) 3.9 (00:00) 9 8.89 (07:40) 6.94 (16:20) 0 0 0 0 0
13-02-2019 14.7 (15:00) 4.2 (00:00) 9.4 8.33 (01:40) 6.11 (06:20) 0 0 0 0 0
12-02-2019 15.4 (12:50) 5.4 (00:00) 10.4 10.83 (15:10) 8.61 (15:10) 0 0 0 0 0
11-02-2019 17 (13:50) 8.8 (00:00) 12.9 8.33 (09:10) 6.11 (09:10) 0 0 0 0 0
10-02-2019 19.3 (13:20) 6.6 (00:00) 12.9 15 (13:20) 10.56 (13:50) 0 0 0 0 0
09-02-2019 15.9 (12:50) 6.8 (00:00) 11.3 7.78 (05:50) 5.83 (05:50) 0 0 0 0 0
08-02-2019 15.1 (12:40) 6.2 (00:00) 10.7 11.67 (18:10) 9.17 (18:50) 0 0 0 0 0
07-02-2019 14.3 (13:40) 6.8 (00:00) 10.6 8.33 (09:40) 6.39 (09:40) 0 0 0 0 0
06-02-2019 15.7 (13:20) 7 (00:00) 11.3 7.22 (05:50) 5.56 (05:50) 0 0 0 0 0
05-02-2019 15 (12:20) 6.5 (00:00) 10.8 8.89 (01:30) 6.11 (09:30) 0 0 0 0 0
04-02-2019 13.6 (14:20) 3.2 (00:00) 8.4 9.72 (09:30) 7.5 (09:30) 0 0 0 0 0
03-02-2019 14.6 (15:40) 5 (00:00) 9.8 13.33 (01:00) 8.89 (01:00) 0 0 0 0 0
02-02-2019 13.5 (16:30) 7.6 (00:00) 10.5 14.44 (19:50) 8.89 (23:50) 0 0 0 0 0
01-02-2019 15.8 (14:50) 9 (00:00) 12.4 15 (04:50) 10.83 (04:40) 0.3 0 0.3 0 0
31-01-2019 15.6 (14:10) 7.2 (00:00) 11.4 11.39 (13:20) 8.89 (13:20) 0 0 0 0 0
30-01-2019 14.7 (15:10) 6.4 (00:00) 10.5 13.89 (03:40) 10 (04:10) 0 0 0 0 0
29-01-2019 10.8 (15:30) 5.8 (00:00) 8.3 10.28 (18:40) 6.67 (19:10) 0 0 0 0 0
28-01-2019 15.6 (15:40) 6.3 (00:00) 11 15.28 (14:00) 10.83 (14:00) 0 0 0 0 0
27-01-2019 17.2 (14:40) 6 (00:00) 11.6 16.94 (19:40) 12.5 (19:40) 0 0 0 0 0
26-01-2019 15.4 (15:50) 5.6 (00:00) 10.5 10.83 (16:10) 7.5 (16:10) 0 0 0 0 0
25-01-2019 14.6 (16:00) 1.8 (00:00) 8.2 11.67 (20:50) 5.83 (18:20) 0 0 0 0 0
24-01-2019 14.3 (15:20) 3.3 (00:00) 8.8 18.61 (09:40) 11.94 (09:40) 0 0 0 0 0
23-01-2019 14.1 (15:40) 3.4 (00:00) 8.8 11.67 (18:40) 7.78 (16:30) 0 0 0 0 0
22-01-2019 10.7 (14:30) 1.6 (00:00) 6.1 8.89 (04:00) 6.94 (11:00) 0 0 0 0 0
21-01-2019 13.4 (15:40) 3.8 (00:00) 8.6 8.89 (10:50) 6.11 (07:40) 0 0 0 0 0
20-01-2019 10.4 (16:20) 5.3 (00:00) 7.8 14.44 (12:40) 9.17 (13:30) 19.9 1.8 17.5 0.6 0
19-01-2019 13.3 (14:30) 3.2 (00:00) 8.3 9.17 (01:40) 6.67 (02:50) 0 0 0 0 0

Gráficas

Temp. máximas Temp. mínimas Temp. medias Precipitaciones Rachas de viento máximas Velocidades máximas media en intervalos de 10 minutos

Datos horarios

Fecha y hora oficial Temperatura (ºC) Velocidad del viento (km/h) Dirección del viento Racha (km/h) Dirección de racha Precipitación (mm) Presión (hPa) Tendencia (hPa) Humedad (%)
2019-02-17 23:00:00 7.9 14 Norte 18 Norte 0 1025.4 0.6 89
2019-02-17 22:00:00 8.8 12 Norte 15 Norte 0 1025.2 0.5 90
2019-02-17 21:00:00 9.5 5 Norte -- -- 0 1025 0.5 88
2019-02-17 20:00:00 11 3 Oeste 8 Noroeste 0 1024.8 0.1 86
2019-02-17 19:00:00 12.2 6 Sudoeste 13 Sur 0 1024.7 -0.3 82
2019-02-17 18:00:00 12.8 9 Sur 17 Sudoeste 0 1024.5 -0.6 79
2019-02-17 17:00:00 13.8 11 Sur 17 Sudoeste 0 1024.7 -1.1 74
2019-02-17 16:00:00 14.1 14 Sudoeste 21 Sur 0 1025 -1.6 71
2019-02-17 15:00:00 14.2 11 Sudoeste 21 Sudoeste 0 1025.1 -2 68
2019-02-17 14:00:00 14.6 11 Sur 18 Sudoeste 0 1025.8 -1.8 68
2019-02-17 13:00:00 14.8 9 Sur 24 Norte 0 1026.6 -1.2 67
2019-02-17 12:00:00 13.6 8 Norte 18 Norte 0 1027.1 -0.7 55
2019-02-17 11:00:00 10.5 14 Norte 24 Norte 0 1027.6 0 46
2019-02-17 10:00:00 7.1 19 Norte 26 Norte 0 1027.8 0.4 54
2019-02-17 09:00:00 4.7 21 Norte 30 Norte 0 1027.8 0.5 61
2019-02-17 08:00:00 3.8 22 Norte 28 Norte 0 1027.6 0.3 65
2019-02-17 07:00:00 4.1 18 Norte 28 Norte 0 1027.4 -0.1 64
2019-02-17 06:00:00 4.4 19 Norte 24 Norte 0 1027.3 -0.5 66
2019-02-17 05:00:00 4.7 18 Norte 24 Norte 0 1027.3 -0.9 67
2019-02-17 04:00:00 5.1 17 Norte 22 Norte 0 1027.5 -0.8 68
2019-02-17 03:00:00 5.8 16 Norte 21 Norte 0 1027.8 -0.7 68
2019-02-17 02:00:00 6 17 Norte 32 Nordeste 0 1028.2 -0.5 72
2019-02-17 01:00:00 5.9 13 Norte 17 Norte 0 1028.3 -0.4 78
2019-02-17 00:00:00 6.6 14 Norte 18 Norte 0 1028.5 -0.1 78
2019-02-16 23:00:00 7.1 14 Norte 41 Norte 0 1028.7 0.3 78
2019-02-16 22:00:00 7.4 11 Norte 13 Norte 0 1028.7 0.4 84
2019-02-16 21:00:00 9.1 8 Norte 11 Norte 0 1028.6 0.5 90
2019-02-16 20:00:00 11 2 Este 8 Este 0 1028.4 0 87
2019-02-16 19:00:00 12.1 0 Calma 9 Sudoeste 0 1028.3 -0.4 84
2019-02-16 18:00:00 13.6 6 Sur 11 Sudoeste 0 1028.1 -1 78
2019-02-16 17:00:00 14.9 8 Sur 11 Sur 0 1028.4 -1.3 66
2019-02-16 16:00:00 14.7 7 Sur 18 Sudeste 0 1028.7 -1.5 64
2019-02-16 15:00:00 14.6 11 Sudeste 18 Sudeste 0 1029.1 -1.7 66
2019-02-16 14:00:00 14.7 12 Sudeste 22 Sudeste 0 1029.7 -1.1 71
2019-02-16 13:00:00 16.1 3 Sur 15 Nordeste 0 1030.2 -0.4 57
2019-02-16 12:00:00 14.4 6 Nordeste 22 Norte 0 1030.8 0.4 38
2019-02-16 11:00:00 11.2 17 Norte 24 Norte 0 1030.8 1.2 43
2019-02-16 10:00:00 7.8 18 Norte 28 Norte 0 1030.6 1.4 54
2019-02-16 09:00:00 5.1 21 Norte 28 Norte 0 1030.4 1.2 62
2019-02-16 08:00:00 3.6 22 Norte 30 Norte 0 1029.6 0.8 68
2019-02-16 07:00:00 4.3 22 Norte 28 Norte 0 1029.2 0.2 65
2019-02-16 06:00:00 4.8 20 Norte 26 Norte 0 1029.2 0.2 65
2019-02-16 05:00:00 4.9 17 Norte 21 Norte 0 1028.8 -0.4 66
2019-02-16 04:00:00 5.3 15 Norte 24 Norte 0 1029 -0.4 66
2019-02-16 03:00:00 5.8 17 Norte 24 Norte 0 1029 -0.4 66
2019-02-16 02:00:00 5.8 16 Norte 21 Norte 0 1029.2 -0.1 71
2019-02-16 01:00:00 5.5 7 Norte 15 Noroeste 0 1029.4 0.1 83
2019-02-16 00:00:00 5.8 3 Norte 8 Norte 0 1029.4 0.2 85
2019-02-15 23:00:00 7.1 2 Norte 17 Sudeste 0 1029.3 -- 84
2019-02-15 22:00:00 7.9 9 Norte 13 Norte 0 1029.3 -- 88
2019-02-15 21:00:00 8.5 5 Noroeste -- -- -- 1029.2 0.5 86
2019-02-15 20:00:00 -- -- -- -- -- -- -- -- --
2019-02-15 19:00:00 -- -- -- -- -- -- -- -- --
2019-02-15 18:00:00 12.7 13 Sudoeste 24 Sudoeste 0 1028.7 -0.5 74
2019-02-15 17:00:00 13.3 16 Sudoeste 24 Sudoeste 0 1028.6 -1.3 71
2019-02-15 16:00:00 13.4 19 Sudoeste 26 Sudoeste 0 1028.9 -1.7 70
2019-02-15 15:00:00 13.7 18 Sudoeste 24 Sudoeste 0 1029.2 -2.2 69
2019-02-15 14:00:00 13.9 14 Sudoeste 21 Sudoeste 0 1029.9 -1.7 67
2019-02-15 13:00:00 13.6 14 Sudoeste 21 Sudoeste 0 1030.6 -1 69
2019-02-15 12:00:00 13.9 0 Calma 15 Norte 0 1031.4 -0.1 55
2019-02-15 11:00:00 10.1 12 Norte 18 Norte 0 1031.6 0.4 58
2019-02-15 10:00:00 7.2 14 Norte 28 Norte 0 1031.6 0.8 67
2019-02-15 09:00:00 4.3 22 Norte 26 Norte 0 1031.5 0.5 78
2019-02-15 08:00:00 3.3 19 Norte 28 Norte 0 1031.2 0.5 83
2019-02-15 07:00:00 3.6 19 Norte 26 Norte 0 1030.8 -0.1 84
2019-02-15 06:00:00 4.5 19 Norte 24 Norte 0 1031 -0.1 84
2019-02-15 05:00:00 4.7 18 Norte 22 Norte 0 1030.7 -0.5 84
2019-02-15 04:00:00 5.2 16 Norte 21 Norte 0 1030.9 -0.8 85
2019-02-15 03:00:00 5.7 15 Norte 21 Norte 0 1031.1 -0.8 88
2019-02-15 02:00:00 5.8 14 Norte 24 Nordeste 0 1031.2 -0.8 89
2019-02-15 01:00:00 5.6 12 Norte 15 Norte 0 1031.7 -0.3 89
2019-02-15 00:00:00 6.2 13 Norte 17 Norte 0 1031.9 0 87
2019-02-14 23:00:00 6.7 4 Noroeste 11 Norte 0 1032 0 84
2019-02-14 22:00:00 7.9 0 Calma 8 Norte 0 1032 -0.1 82
2019-02-14 21:00:00 8.6 3 Norte 11 Oeste 0 1031.9 -0.1 81
2019-02-14 20:00:00 10.3 7 Oeste 15 Oeste 0 1032 -0.2 77
2019-02-14 19:00:00 11.3 9 Sudoeste 21 Sudoeste 0 1032.1 -0.4 74
2019-02-14 18:00:00 12.8 15 Sudoeste 24 Sur 0 1032 -0.9 70
2019-02-14 17:00:00 13.5 20 Sudoeste 32 Sudoeste 0 1032.2 -1.5 65
2019-02-14 16:00:00 13.7 23 Sudoeste 30 Sudoeste 0 1032.5 -2.2 63
2019-02-14 15:00:00 13.9 21 Sudoeste 26 Sudoeste 0 1032.9 -2.5 66
2019-02-14 14:00:00 13.8 17 Sudoeste 26 Sudoeste 0 1033.7 -2 68
2019-02-14 13:00:00 13.6 13 Sudoeste 21 Sudoeste 0 1034.7 -0.8 68
2019-02-14 12:00:00 13 2 Nordeste 17 Norte 0 1035.4 -0.1 66
2019-02-14 11:00:00 9.3 17 Norte 28 Norte 0 1035.7 0.6 71
2019-02-14 10:00:00 6.6 23 Norte 30 Norte 0 1035.5 0.5 79
2019-02-14 09:00:00 4.6 23 Norte 30 Norte 0 1035.5 0.5 86
2019-02-14 08:00:00 3.9 23 Norte 32 Norte 0 1035.1 0.5 89
2019-02-14 07:00:00 4.5 22 Norte 28 Norte 0 1035 0.5 89
2019-02-14 06:00:00 5 21 Norte 28 Norte 0 1035 0.4 88
2019-02-14 05:00:00 5.4 20 Norte 26 Norte 0 1034.6 0.1 88
2019-02-14 04:00:00 5.6 19 Norte 24 Norte 0 1034.5 0.1 89
2019-02-14 03:00:00 6.4 17 Norte 22 Norte 0 1034.6 0.5 90
2019-02-14 02:00:00 6.7 15 Norte 21 Norte 0 1034.5 0.6 90
2019-02-14 01:00:00 6.7 16 Norte 21 Norte 0 1034.4 0.8 90
2019-02-14 00:00:00 6.8 13 Norte 17 Norte 0 1034.1 1 91
2019-02-13 23:00:00 7.4 10 Norte 18 Norte 0 1033.9 0.9 89
2019-02-13 22:00:00 8.3 12 Norte 15 Norte 0 1033.6 0.8 86
2019-02-13 21:00:00 9.1 4 Norte 9 Norte 0 1033.1 0.8 87
2019-02-13 20:00:00 10.5 6 Noroeste 8 Noroeste 0 1033 0.7 85
2019-02-13 19:00:00 11.6 6 Oeste 13 Sudoeste 0 1032.8 0.5 82
2019-02-13 18:00:00 13.3 9 Sudoeste 18 Sudoeste 0 1032.3 0.1 75
2019-02-13 17:00:00 13.9 14 Sudoeste 18 Sudoeste 0 1032.3 -0.3 72
2019-02-13 16:00:00 14.4 12 Sudoeste 17 Sudoeste 0 1032.3 -0.8 63
2019-02-13 15:00:00 14.5 8 Sudoeste 15 Sur 0 1032.2 -1 61
2019-02-13 14:00:00 14 12 Sudeste 22 Este 0 1032.6 -0.4 63
2019-02-13 13:00:00 14.1 11 Este 21 Este 0 1033.1 0.5 63
2019-02-13 12:00:00 13.5 11 Este 17 Este 0 1033.2 0.9 64
2019-02-13 11:00:00 11.7 10 Norte 18 Norte 0 1033 1.4 56
2019-02-13 10:00:00 8 15 Norte 24 Norte 0 1032.6 1.8 64
2019-02-13 09:00:00 5.4 16 Norte 26 Norte 0 1032.3 1.9 72
2019-02-13 08:00:00 4.5 20 Norte 26 Norte 0 1031.6 1.5 75
2019-02-13 07:00:00 5 15 Norte 30 Norte 0 1030.8 0.8 72
2019-02-13 06:00:00 5 17 Norte 26 Norte 0 1030.4 0.2 73
2019-02-13 05:00:00 5.3 20 Norte 26 Norte 0 1030.1 -0.3 73
2019-02-13 04:00:00 5.9 13 Norte 24 Norte 0 1030 -0.8 71
2019-02-13 03:00:00 6.8 8 Norte 21 Norte 0 1030.2 -0.9 67
2019-02-13 02:00:00 6.8 12 Norte 30 Norte 0 1030.4 -1.1 68
2019-02-13 01:00:00 6.9 4 Norte 8 Norte 0 1030.8 -0.6 71
2019-02-13 00:00:00 7.2 4 Noroeste 8 Noroeste 0 1031.1 0.1 77
2019-02-12 23:00:00 8.4 4 Norte 11 Norte 0 1031.5 0.5 74
2019-02-12 22:00:00 9.1 8 Norte 11 Norte 0 1031.4 0.8 73
2019-02-12 21:00:00 10.1 6 Oeste 18 Sudoeste 0 1031 0.9 74
2019-02-12 20:00:00 11.7 15 Sudoeste 24 Sudoeste 0 1031 1 75
2019-02-12 19:00:00 12.2 17 Sudoeste 26 Sudoeste 0 1030.6 0.6 71
2019-02-12 18:00:00 13.1 17 Sudoeste 32 Sudoeste 0 1030.1 -0.3 68
2019-02-12 17:00:00 13.8 27 Sudoeste 35 Oeste 0 1030 -1.1 61
2019-02-12 16:00:00 14.4 24 Sudoeste 39 Sudoeste 0 1030 -1.8 54
2019-02-12 15:00:00 14 28 Sudoeste 35 Sudoeste 0 1030.4 -1.8 58
2019-02-12 14:00:00 14.5 26 Sudoeste 32 Sudoeste 0 1031.1 -0.9 54
2019-02-12 13:00:00 14.9 13 Sudoeste 18 Sudoeste 0 1031.8 -0.2 49
2019-02-12 12:00:00 13 14 Norte 24 Norte 0 1032.2 0.5 51
2019-02-12 11:00:00 11.3 17 Norte 30 Norte 0 1032 0.8 57
2019-02-12 10:00:00 8.5 12 Norte 26 Norte 0 1032 1.7 69
2019-02-12 09:00:00 6.5 20 Norte 28 Norte 0 1031.7 1.4 76
2019-02-12 08:00:00 6.1 19 Norte 30 Norte 0 1031.2 1.3 77
2019-02-12 07:00:00 5.8 17 Norte 26 Norte 0 1030.3 0.5 78
2019-02-12 06:00:00 6.6 18 Norte 30 Norte 0 1030.3 0.3 77
2019-02-12 05:00:00 7.1 18 Norte 26 Norte 0 1029.9 -0.1 81
2019-02-12 04:00:00 7.5 16 Norte 26 Norte 0 1029.8 -0.2 85
2019-02-12 03:00:00 7.8 13 Norte 21 Norte 0 1030 0.2 88
2019-02-12 02:00:00 8.2 14 Norte 28 Nordeste 0 1030 0.5 86
2019-02-12 01:00:00 8.5 13 Norte 18 Norte 0 1030 1.3 84
2019-02-12 00:00:00 8.9 12 Norte 17 Norte 0 1029.8 1.6 82
2019-02-11 23:00:00 9.5 10 Norte 13 Norte 0 1029.5 2.1 79
2019-02-11 22:00:00 12.7 8 Sudeste 13 Sudeste 0 1028.7 2.2 73
2019-02-11 21:00:00 12.1 9 Este 13 Este 0 1028.2 2 73
2019-02-11 20:00:00 12.5 6 Sur 15 Sudoeste 0 1027.4 1.9 71
2019-02-11 19:00:00 12.4 12 Sudoeste 18 Sudoeste 0 1026.5 1.2 69
2019-02-11 18:00:00 13.5 14 Sudoeste 21 Sudoeste 0 1026.2 1.1 64
2019-02-11 17:00:00 14.6 17 Sudoeste 24 Sudoeste 0 1025.5 0.1 63
2019-02-11 16:00:00 14.8 14 Sudoeste 22 Sudoeste 0 1025.3 -0.7 63
2019-02-11 15:00:00 15.5 15 Sur 26 Sudoeste 0 1025.1 -0.8 54
2019-02-11 14:00:00 16.9 4 Oeste 13 Norte 0 1025.4 0.2 45
2019-02-11 13:00:00 15.1 9 Norte 22 Norte 0 1026 1.2 50
2019-02-11 12:00:00 13.6 17 Norte 26 Norte 0 1025.9 1.7 52
2019-02-11 11:00:00 12.6 20 Norte 26 Norte 0 1025.2 2.4 52
2019-02-11 10:00:00 11 17 Norte 30 Norte 0 1024.8 2.5 59
2019-02-11 09:00:00 9.9 19 Norte 28 Norte 0 1024.2 2.9 63
2019-02-11 08:00:00 9.5 19 Norte 26 Norte 0 1022.8 1.9 65
2019-02-11 07:00:00 9.8 15 Norte 22 Norte 0 1022.3 1.6 63
2019-02-11 06:00:00 10.6 18 Norte 26 Norte 0 1021.3 1.2 61
2019-02-11 05:00:00 10.4 6 Norte 18 Norte 0 1020.9 0.8 65
2019-02-11 04:00:00 9 12 Noroeste 18 Noroeste 0 1020.7 1.4 75
2019-02-11 03:00:00 11 8 Nordeste 15 Nordeste 0 1020.1 1.4 69
2019-02-11 02:00:00 10.8 9 Nordeste 15 Norte 0 1020.1 1.6 87
2019-02-11 01:00:00 11.5 4 Oeste 15 Este 0 1019.3 2 87
2019-02-11 00:00:00 12.9 12 Este 24 Este 0 1018.7 1.8 83
2019-02-10 23:00:00 13.8 11 Este 17 Este 0 1018.5 1.9 75
2019-02-10 22:00:00 14.4 17 Oeste 24 Oeste 0 1017.3 1.5 66
2019-02-10 21:00:00 14.2 21 Oeste 28 Oeste 0 1016.9 1.2 67
2019-02-10 20:00:00 13.8 22 Oeste 45 Oeste 0 1016.6 1.6 78
2019-02-10 19:00:00 14.5 36 Oeste 48 Oeste 0 1015.8 1.2 69
2019-02-10 18:00:00 15.3 26 Sudoeste 45 Sudoeste 0 1015.7 1.1 70
2019-02-10 17:00:00 16.1 34 Sudoeste 50 Sudoeste 0 1015 0 62
2019-02-10 16:00:00 17.9 32 Oeste 45 Oeste 0 1014.6 -0.9 46
2019-02-10 15:00:00 17.4 24 Oeste 41 Oeste 0 1014.6 -1.2 45
2019-02-10 14:00:00 17.4 36 Oeste 54 Oeste 0 1015 -1.1 43
2019-02-10 13:00:00 18.4 29 Oeste 50 Noroeste 0 1015.5 -1.1 40
2019-02-10 12:00:00 17.2 32 Oeste 42 Oeste 0 1015.8 -0.9 46
2019-02-10 11:00:00 14.1 27 Oeste 42 Oeste 0 1016.1 -0.4 73
2019-02-10 10:00:00 12.8 24 Oeste 30 Oeste 0 1016.6 0.2 74
2019-02-10 09:00:00 6.9 4 Norte 11 Norte 0 1016.7 -0.2 86
2019-02-10 08:00:00 7.5 2 Nordeste 32 Norte 0 1016.5 -0.6 83
2019-02-10 07:00:00 10 19 Oeste 26 Oeste 0 1016.4 -1.2 85
2019-02-10 06:00:00 7.8 4 Oeste 13 Noroeste 0 1016.9 -1.7 88
2019-02-10 05:00:00 7.9 0 Calma 11 Norte 0 1017.1 -2 90
2019-02-10 04:00:00 7.9 8 Norte 13 Norte 0 1017.6 -2 91
2019-02-10 03:00:00 8 0 Calma 11 Norte 0 1018.6 -1.4 94
2019-02-10 02:00:00 8.4 9 Norte 13 Norte 0 1019.1 -1.2 94
2019-02-10 01:00:00 8.4 3 Noroeste 11 Noroeste 0 1019.6 -0.8 95
2019-02-10 00:00:00 8.4 2 Norte 8 Norte 0 1020 -0.5 94
2019-02-09 23:00:00 9 2 Norte 5 Oeste 0 1020.3 -0.3 95
2019-02-09 22:00:00 9.7 0 Calma 9 Norte 0 1020.4 -0.1 93
2019-02-09 21:00:00 11.5 6 Sudoeste 9 Sudoeste 0 1020.5 -0.1 95
2019-02-09 20:00:00 11.5 0 Calma 9 Sudoeste 0 1020.6 -0.1 93
2019-02-09 19:00:00 12.2 8 Sudoeste 11 Sudoeste 0 1020.5 -0.4 91
2019-02-09 18:00:00 13.1 10 Sudoeste 18 Sudoeste 0 1020.6 -0.6 87
2019-02-09 17:00:00 14 12 Sudoeste 15 Sudoeste 0 1020.7 -0.8 82
2019-02-09 16:00:00 14.7 11 Sur 18 Sur 0 1020.9 -1.3 77
2019-02-09 15:00:00 14.8 11 Sur 17 Sur 0 1021.2 -1.5 73
2019-02-09 14:00:00 15.1 11 Sur 18 Sudeste 0 1021.5 -1.2 70
2019-02-09 13:00:00 15.5 12 Sudeste 17 Sudeste 0 1022.2 -0.2 68
2019-02-09 12:00:00 14.6 10 Norte 22 Norte 0 1022.7 0.6 69
2019-02-09 11:00:00 12.9 15 Norte 21 Norte 0 1022.7 1.2 75
2019-02-09 10:00:00 10.8 13 Norte 22 Norte 0 1022.4 1.6 81
2019-02-09 09:00:00 8.1 16 Norte 21 Norte 0 1022.1 1.8 87
2019-02-09 08:00:00 7.1 13 Norte 17 Norte 0 1021.5 1.9 88
2019-02-09 07:00:00 6.8 11 Norte 18 Norte 0 1020.8 1.3 85
2019-02-09 06:00:00 7.4 19 Norte 28 Norte 0 1020.3 0.9 82
2019-02-09 05:00:00 8.1 14 Norte 18 Norte 0 1019.6 0.1 82
2019-02-09 04:00:00 7.8 11 Norte 13 Norte 0 1019.5 -0.2 88
2019-02-09 03:00:00 8.1 3 Nordeste 9 Sudeste 0 1019.4 -0.5 93
2019-02-09 02:00:00 8.4 0 Calma 9 Norte 0 1019.5 -0.5 94
2019-02-09 01:00:00 9 0 Calma 9 Norte 0 1019.7 0.2 92
2019-02-09 00:00:00 10.1 6 Noroeste 24 Oeste 0 1019.9 0.4 88
2019-02-08 23:00:00 11.8 22 Oeste 33 Oeste 0 1020 0.7 86
2019-02-08 22:00:00 12.2 28 Oeste 39 Oeste 0 1019.5 0.4 85
2019-02-08 21:00:00 12.3 21 Oeste 39 Oeste 0 1019.5 0.4 86
2019-02-08 20:00:00 12.2 25 Oeste 39 Oeste 0 1019.3 -0.2 87
2019-02-08 19:00:00 12.5 29 Oeste 42 Oeste 0 1019.1 -0.7 89
2019-02-08 18:00:00 12.9 30 Oeste 41 Oeste 0 1019.1 -0.9 86
2019-02-08 17:00:00 13.8 30 Oeste 39 Oeste 0 1019.5 -1.3 83
2019-02-08 16:00:00 14.2 28 Sudoeste 39 Sudoeste 0 1019.8 -1.8 83
2019-02-08 15:00:00 14.8 30 Sudoeste 41 Sudoeste 0 1020 -2.6 75
2019-02-08 14:00:00 14.8 23 Sudoeste 32 Sudoeste 0 1020.8 -2.2 68
2019-02-08 13:00:00 14.8 21 Sudoeste 28 Sudoeste 0 1021.6 -1.6 62
2019-02-08 12:00:00 14.1 11 Sudoeste 17 Sudoeste 0 1022.6 -0.3 66
2019-02-08 11:00:00 11.6 10 Norte 18 Norte 0 1023 0.5 69
2019-02-08 10:00:00 9 13 Norte 18 Norte 0 1023.2 0.8 78
2019-02-08 09:00:00 7.2 11 Norte 17 Norte 0 1022.9 0.7 85
2019-02-08 08:00:00 6.4 10 Norte 17 Norte 0 1022.5 0.2 92
2019-02-08 07:00:00 6.3 3 Nordeste 11 Norte 0 1022.4 -0.4 99
2019-02-08 06:00:00 6.6 5 Norte 11 Norte 0 1022.2 -0.7 99
2019-02-08 05:00:00 6.9 8 Norte 9 Norte 0 1022.3 -0.9 99
2019-02-08 04:00:00 7.4 9 Norte 15 Norte 0 1022.8 -0.6 99
2019-02-08 03:00:00 7.5 9 Norte 15 Norte 0 1022.9 -0.7 99
2019-02-08 02:00:00 7.5 10 Norte 13 Norte 0 1023.2 -0.1 97
2019-02-08 01:00:00 8.8 3 Nordeste 9 Norte 0 1023.4 0.7 95
2019-02-08 00:00:00 8.9 0 Calma 13 Norte 0 1023.6 1.4 95
2019-02-07 23:00:00 9.3 2 Noroeste 5 Noroeste 0 1023.3 1.6 95
2019-02-07 22:00:00 10.1 0 Calma 5 Noroeste 0 1022.7 1.2 94
2019-02-07 21:00:00 11.1 3 Sudoeste 8 Oeste 0 1022.2 1.4 92
2019-02-07 20:00:00 12.3 5 Sur 17 Sur 0 1021.7 1 89
2019-02-07 19:00:00 12 4 Sur 8 Sudoeste 0 1021.5 1.3 89
2019-02-07 18:00:00 12.5 4 Sur 11 Sudeste 0 1020.8 0.4 86
2019-02-07 17:00:00 13.2 8 Sudeste 15 Sudeste 0 1020.7 0 83
2019-02-07 16:00:00 13.8 9 Sudeste 18 Este 0 1020.2 -0.9 80
2019-02-07 15:00:00 13.8 13 Sudeste 18 Este 0 1020.4 -1.1 80
2019-02-07 14:00:00 14.2 13 Sudeste 18 Sudeste 0 1020.7 -0.8 78
2019-02-07 13:00:00 14.1 13 Este 18 Este 0 1021.1 -0.3 77
2019-02-07 12:00:00 13.4 13 Este 17 Este 0 1021.5 0.6 79
2019-02-07 11:00:00 10.6 14 Norte 24 Norte 0 1021.5 1.3 74
2019-02-07 10:00:00 8.2 17 Norte 30 Norte 0 1021.4 1.3 82
2019-02-07 09:00:00 7.5 17 Norte 26 Norte 0 1020.9 0.9 84
2019-02-07 08:00:00 6.9 14 Norte 18 Norte 0 1020.2 0.2 88
2019-02-07 07:00:00 6.8 10 Norte 18 Norte 0 1020.1 -0.3 89
2019-02-07 06:00:00 7.8 13 Norte 18 Norte 0 1020 -0.6 87
2019-02-07 05:00:00 7.8 14 Norte 21 Norte 0 1020 -0.8 88
2019-02-07 04:00:00 7.9 14 Norte 18 Norte 0 1020.4 -1 90
2019-02-07 03:00:00 8.2 14 Norte 18 Norte 0 1020.6 -0.7 91
2019-02-07 02:00:00 8.2 0 Calma 11 Norte 0 1020.8 -0.8 93
2019-02-07 01:00:00 8.4 8 Norte 17 Norte 0 1021.4 -0.3 93
2019-02-07 00:00:00 8.9 0 Calma 11 Norte 0 1021.3 -0.4 91
2019-02-06 23:00:00 9.8 7 Norte 11 Norte 0 1021.6 -0.2 90
2019-02-06 22:00:00 10.6 0 Calma 8 Norte 0 1021.7 0 90
2019-02-06 21:00:00 12.1 8 Oeste 18 Sudoeste 0 1021.7 0.3 87
2019-02-06 20:00:00 12.7 14 Sudoeste 21 Sudoeste 0 1021.8 0.2 86
2019-02-06 19:00:00 12.8 16 Sudoeste 21 Sudoeste 0 1021.7 -0.2 87
2019-02-06 18:00:00 13.7 12 Sudoeste 22 Sudoeste 0 1021.4 -0.9 84
2019-02-06 17:00:00 14.6 15 Sudoeste 21 Sudoeste 0 1021.6 -1.4 78
2019-02-06 16:00:00 15.2 16 Sudoeste 22 Sudoeste 0 1021.9 -1.9 70
2019-02-06 15:00:00 15.2 14 Sudoeste 21 Sudoeste 0 1022.3 -2.4 70
2019-02-06 14:00:00 15.3 14 Sur 18 Sur 0 1023 -2 72
2019-02-06 13:00:00 15.4 10 Sudoeste 15 Sur 0 1023.8 -1.3 72
2019-02-06 12:00:00 14.8 10 Norte 21 Norte 0 1024.7 -0.4 63
2019-02-06 11:00:00 12.9 14 Norte 22 Norte 0 1025 0.3 69
2019-02-06 10:00:00 10.7 14 Norte 22 Norte 0 1025.1 0.7 76
2019-02-06 09:00:00 8.2 14 Norte 22 Norte 0 1025.1 0.6 83
2019-02-06 08:00:00 7.3 14 Norte 24 Norte 0 1024.7 0.3 85
2019-02-06 07:00:00 7 14 Norte 22 Norte 0 1024.4 -0.7 85
2019-02-06 06:00:00 7.6 19 Norte 26 Norte 0 1024.5 -1.2 82
2019-02-06 05:00:00 7.3 16 Norte 22 Norte 0 1024.4 -1.1 82
2019-02-06 04:00:00 7.5 14 Norte 22 Norte 0 1025.1 -0.5 83
2019-02-06 03:00:00 7.8 15 Norte 21 Norte 0 1025.7 0 84
2019-02-06 02:00:00 7.9 12 Norte 22 Nordeste 0 1025.5 -0.3 87
2019-02-06 01:00:00 8.3 10 Norte 17 Norte 0 1025.6 0.2 86
2019-02-06 00:00:00 8.4 9 Norte 17 Norte 0 1025.7 0.6 87
2019-02-05 23:00:00 9.1 10 Norte 15 Norte 0 1025.8 1 85
2019-02-05 22:00:00 9.6 12 Norte 15 Norte 0 1025.4 0.8 84
2019-02-05 21:00:00 10.8 4 Norte 11 Sudoeste 0 1025.1 0.8 89
2019-02-05 20:00:00 12 6 Sudoeste 11 Sudoeste 0 1024.8 0.7 87
2019-02-05 19:00:00 12.5 5 Oeste 15 Sudoeste 0 1024.6 0.5 85
2019-02-05 18:00:00 14 13 Sudoeste 17 Sur 0 1024.3 0 75
2019-02-05 17:00:00 14.7 12 Sudoeste 22 Sudoeste 0 1024.1 -0.5 69
2019-02-05 16:00:00 14.3 19 Sudoeste 24 Sudoeste 0 1024.1 -1.1 67
2019-02-05 15:00:00 14.7 14 Sudoeste 22 Sudoeste 0 1024.3 -1.6 65
2019-02-05 14:00:00 14.1 14 Sudoeste 21 Sudoeste 0 1024.6 -1.3 64
2019-02-05 13:00:00 14.7 9 Sur 15 Sudoeste 0 1025.2 -0.6 55
2019-02-05 12:00:00 13.6 6 Noroeste 17 Norte 0 1025.9 0.3 52
2019-02-05 11:00:00 11.3 13 Norte 28 Norte 0 1025.9 0.6 56
2019-02-05 10:00:00 8.2 19 Norte 28 Norte 0 1025.8 0.5 61
2019-02-05 09:00:00 6.8 15 Norte 30 Norte 0 1025.6 0.1 66
2019-02-05 08:00:00 6.7 21 Norte 26 Norte 0 1025.3 -0.2 65
2019-02-05 07:00:00 7.3 19 Norte 24 Norte 0 1025.3 -0.2 65
2019-02-05 06:00:00 7.4 14 Norte 22 Norte 0 1025.5 -0.5 63
2019-02-05 05:00:00 7.2 18 Norte 22 Norte 0 1025.5 -0.7 64
2019-02-05 04:00:00 7.4 13 Norte 17 Norte 0 1025.5 -1 65
2019-02-05 03:00:00 7.5 12 Norte 17 Norte 0 1026 -0.5 64
2019-02-05 02:00:00 8 10 Norte 32 Nordeste 0 1026.2 -0.2 62
2019-02-05 01:00:00 8.1 9 Norte 21 Norte 0 1026.5 -0.1 60
2019-02-05 00:00:00 7.9 7 Norte 15 Norte 0 1026.5 0.1 61
2019-02-04 23:00:00 7.7 3 Norte 9 Norte 0 1026.4 0.1 61
2019-02-04 22:00:00 8 4 Norte 8 Norte 0 1026.6 0.5 62
2019-02-04 21:00:00 8 0 Calma 4 Oeste 0 1026.4 0.6 63
2019-02-04 20:00:00 9.1 4 Oeste 8 Oeste 0 1026.3 0.9 59
2019-02-04 19:00:00 9.7 6 Oeste 17 Sudoeste 0 1026.1 1 60
2019-02-04 18:00:00 11.1 11 Sudoeste 18 Sudoeste 0 1025.8 0.9 54
2019-02-04 17:00:00 11.7 13 Sudoeste 21 Sudoeste 0 1025.4 0.1 49
2019-02-04 16:00:00 11.9 16 Sudoeste 21 Sudoeste 0 1025.1 -0.6 46
2019-02-04 15:00:00 12.3 15 Sudoeste 21 Sudoeste 0 1024.9 -1.5 38
2019-02-04 14:00:00 13 4 Norte 17 Norte 0 1025.3 -1 33
2019-02-04 13:00:00 11.3 13 Norte 24 Norte 0 1025.7 0.1 38
2019-02-04 12:00:00 9.5 19 Norte 32 Norte 0 1026.4 1.3 41
2019-02-04 11:00:00 7.6 24 Norte 32 Norte 0 1026.3 1.8 43
2019-02-04 10:00:00 6.3 26 Norte 35 Norte 0 1025.6 2.3 43
2019-02-04 09:00:00 3.9 26 Norte 33 Norte 0 1025.1 1.8 47
2019-02-04 08:00:00 3.8 22 Norte 32 Norte 0 1024.5 2 41
2019-02-04 07:00:00 4.2 14 Norte 30 Norte 0 1023.3 0.9 40
2019-02-04 06:00:00 4.7 22 Norte 30 Norte 0 1023.3 1.1 37
2019-02-04 05:00:00 5.1 22 Norte 32 Norte 0 1022.5 0.9 33
2019-02-04 04:00:00 5.3 21 Norte 30 Norte 0 1022.4 1.3 32
2019-02-04 03:00:00 5.3 16 Norte 26 Norte 0 1022.2 1.2 31
2019-02-04 02:00:00 5.3 15 Norte 32 Norte 0 1021.6 0.6 33
2019-02-04 01:00:00 5.8 20 Norte 28 Norte 0 1021.1 1 32
2019-02-04 00:00:00 6.2 16 Norte 24 Norte 0 1021 1.6 32
2019-02-03 23:00:00 8.1 15 Noroeste 32 Noroeste 0 1021 2 25
2019-02-03 22:00:00 7.9 15 Norte 26 Norte 0 1020.1 2.1 27
2019-02-03 21:00:00 8.7 17 Noroeste 26 Noroeste 0 1019.4 2.4 26
2019-02-03 20:00:00 9.1 13 Noroeste 28 Noroeste 0 1019 2.7 27
2019-02-03 19:00:00 9.5 9 Noroeste 21 Norte 0 1018 2.2 27
2019-02-03 18:00:00 12.4 7 Norte 26 Norte 0 1017 1.8 21
2019-02-03 17:00:00 13.9 15 Noroeste 22 Noroeste 0 1016.3 1.3 16
2019-02-03 16:00:00 13.9 13 Sudoeste 24 Noroeste 0 1015.8 0.8 22
2019-02-03 15:00:00 13.8 9 Norte 26 Norte 0 1015.2 0.3 15
2019-02-03 14:00:00 13.1 14 Norte 22 Noroeste 0 1015 0.6 14
2019-02-03 13:00:00 12.4 17 Norte 26 Norte 0 1015 1.3 18
2019-02-03 12:00:00 11 16 Norte 26 Norte 0 1014.9 2.1 19
2019-02-03 11:00:00 9.6 16 Norte 26 Norte 0 1014.4 2.6 25
2019-02-03 10:00:00 7 15 Norte 24 Norte 0 1013.7 2.9 35
2019-02-03 09:00:00 5.4 11 Norte 24 Noroeste 0 1012.8 3 36
2019-02-03 08:00:00 5.9 18 Norte 26 Norte 0 1011.8 2.9 30
2019-02-03 07:00:00 5.4 14 Norte 22 Norte 0 1010.8 2.9 33
2019-02-03 06:00:00 6 12 Nordeste 30 Norte 0 1009.8 2.1 33
2019-02-03 05:00:00 6.8 18 Norte 39 Norte 0 1008.9 1.9 30
2019-02-03 04:00:00 7.2 21 Norte 41 Norte 0 1007.9 1.3 30
2019-02-03 03:00:00 7.4 27 Noroeste 45 Noroeste 0 1007.7 1.6 30
2019-02-03 02:00:00 7.5 28 Noroeste 45 Noroeste 0 1007 1.5 31
2019-02-03 01:00:00 7.8 32 Norte 48 Norte 0 1006.6 2.1 31
2019-02-03 00:00:00 8.3 29 Norte 48 Noroeste 0 1006.1 2.7 31
2019-02-02 23:00:00 9.1 29 Norte 46 Norte 0 1005.5 2.6 29
2019-02-02 22:00:00 9.8 26 Norte 42 Norte 0 1004.5 2.5 29
2019-02-02 21:00:00 10.1 28 Norte 45 Oeste 0 1003.4 2.4 31
2019-02-02 20:00:00 10.6 28 Noroeste 52 Norte 0 1002.9 3 35
2019-02-02 19:00:00 10.5 25 Noroeste 39 Oeste 0 1002 3.4 48
2019-02-02 18:00:00 12.3 17 Oeste 33 Oeste 0 1001 3.2 46
2019-02-02 17:00:00 13.3 28 Noroeste 42 Noroeste 0 999.9 2.5 47
2019-02-02 16:00:00 13 24 Noroeste 42 Noroeste 0 998.6 1.4 50
2019-02-02 15:00:00 12.2 22 Noroeste 33 Noroeste 0 997.8 0.5 54
2019-02-02 14:00:00 12.6 19 Noroeste 33 Noroeste 0 997.4 0.7 51
2019-02-02 13:00:00 11.5 19 Norte 26 Noroeste 0 997.2 1.2 57
2019-02-02 12:00:00 9.7 10 Norte 18 Norte 0 997.3 2.2 63
2019-02-02 11:00:00 9.3 16 Norte 22 Norte 0 996.7 2.8 64
2019-02-02 10:00:00 9.3 13 Norte 21 Norte 0 996 3.3 65
2019-02-02 09:00:00 7.9 10 Norte 24 Noroeste 0 995.1 3 68
2019-02-02 08:00:00 8 13 Noroeste 30 Oeste 0 993.9 2.5 65
2019-02-02 07:00:00 8 14 Oeste 39 Oeste 0 992.7 1.4 64
2019-02-02 06:00:00 8.2 23 Oeste 32 Oeste 0 992.1 1.1 65
2019-02-02 05:00:00 8.2 22 Oeste 48 Oeste 0 991.4 0.7 65
2019-02-02 04:00:00 8.3 19 Oeste 35 Oeste 0 991.3 0.9 65
2019-02-02 03:00:00 8.2 29 Oeste 37 Oeste 0 991 0.6 68
2019-02-02 02:00:00 8.6 16 Oeste 26 Oeste 0 990.7 0.7 67
2019-02-02 01:00:00 9.3 15 Noroeste 26 Noroeste 0 990.4 1.4 66
2019-02-02 00:00:00 9.1 11 Noroeste 32 Norte 0 990.4 1 73
2019-02-01 23:00:00 10.1 31 Noroeste 50 Noroeste 0 990 0.6 68
2019-02-01 22:00:00 9.3 3 Norte 9 Oeste 0 989 -0.4 83
2019-02-01 21:00:00 9.8 5 Oeste -- -- 0 989.4 0.4 86
2019-02-01 20:00:00 11.6 12 Sudoeste 17 Sudoeste 0 989.4 0.1 86
2019-02-01 19:00:00 13 13 Sudoeste 22 Sudoeste 0 989.4 0.3 79
2019-02-01 18:00:00 13 14 Oeste 28 Sudoeste 0 989 -0.2 73
2019-02-01 17:00:00 15 23 Sudoeste 33 Oeste 0 989.3 0.3 60
2019-02-01 16:00:00 14.2 16 Oeste 42 Oeste 0 989.1 -0.6 73
2019-02-01 15:00:00 15.2 31 Sudoeste 46 Sudoeste 0 989.2 -1.7 70
2019-02-01 14:00:00 14.8 27 Sudoeste 35 Sudoeste 0 989 -2 75
2019-02-01 13:00:00 14.6 24 Sudoeste 32 Sudoeste 0 989.7 -0.7 76
2019-02-01 12:00:00 14.5 2 Oeste 22 Noroeste 0 990.9 1.1 69
2019-02-01 11:00:00 12.7 25 Noroeste 35 Noroeste 0.1 991 1.4 76
2019-02-01 10:00:00 14.2 15 Noroeste 37 Sudoeste 0 990.4 0.8 72
2019-02-01 09:00:00 14.4 25 Sudoeste 33 Sudoeste 0 989.8 -0.8 88
2019-02-01 08:00:00 14.3 24 Sudoeste 41 Sudoeste 0.2 989.6 -1.2 86
2019-02-01 07:00:00 14.6 28 Sudoeste 52 Oeste 0 989.6 -2 82
2019-02-01 06:00:00 14.6 34 Oeste 48 Oeste 0 990.6 -2.3 82
2019-02-01 05:00:00 15 37 Oeste 54 Oeste 0 990.8 -2.9 76
2019-02-01 04:00:00 14.4 25 Sudoeste 37 Oeste 0 991.6 -2.8 80
2019-02-01 03:00:00 14.2 21 Oeste 28 Oeste 0 992.9 -1.7 81
2019-02-01 02:00:00 13.2 13 Sudoeste 22 Sudoeste 0 993.7 -1.6 81
2019-02-01 01:00:00 13.2 16 Sudoeste 24 Sudoeste 0 994.4 -1.5 80
2019-02-01 00:00:00 13.1 11 Sudoeste 18 Sudoeste 0 994.6 -1.3 80
2019-01-31 23:00:00 12.8 14 Sudoeste 22 Oeste 0 995.3 -1 86
2019-01-31 22:00:00 12.1 12 Oeste 17 Sudoeste 0 995.9 -0.6 92
2019-01-31 21:00:00 13.1 9 Sudoeste 15 Sur 0 995.9 -0.8 85
2019-01-31 20:00:00 13.6 0 Calma 15 Norte 0 996.3 -0.5 69
2019-01-31 19:00:00 12.9 4 Nordeste 21 Oeste 0 996.5 -0.4 78
2019-01-31 18:00:00 13.6 19 Oeste 26 Oeste 0 996.7 -0.2 75
2019-01-31 17:00:00 14.3 16 Oeste 33 Oeste 0 996.8 0 71
2019-01-31 16:00:00 14.7 25 Oeste 35 Sudoeste 0 996.9 -0.4 70
2019-01-31 15:00:00 14.3 30 Sudoeste 39 Sudoeste 0 996.9 -1.5 67
2019-01-31 14:00:00 15.2 28 Oeste 41 Sudoeste 0 996.8 -1.6 63
2019-01-31 13:00:00 14 28 Oeste 37 Oeste 0 997.3 -0.9 66
2019-01-31 12:00:00 13.4 23 Oeste 28 Oeste 0 998.4 -0.4 72
2019-01-31 11:00:00 15.2 20 Oeste 30 Noroeste 0 998.4 -0.3 62
2019-01-31 10:00:00 11.8 21 Noroeste 26 Oeste 0 998.2 -0.6 68
2019-01-31 09:00:00 9.4 10 Oeste 18 Oeste 0 998.8 -0.7 71
2019-01-31 08:00:00 7.4 0 Calma 13 Norte 0 998.7 -1.3 70
2019-01-31 07:00:00 8.2 8 Nordeste 17 Norte 0 998.8 -2.2 64
2019-01-31 06:00:00 8.4 9 Norte 13 Norte 0 999.5 -2.5 62
2019-01-31 05:00:00 8 0 Calma 9 Norte 0 1000 -2.5 60
2019-01-31 04:00:00 8.3 7 Norte 13 Norte 0 1001 -2.5 57
2019-01-31 03:00:00 8.1 3 Nordeste 11 Norte 0 1002 -2.1 62
2019-01-31 02:00:00 9.1 3 Norte 13 Oeste 0 1002.5 -2.2 56
2019-01-31 01:00:00 8.4 7 Oeste 15 Oeste 0 1003.5 -1.7 60
2019-01-31 00:00:00 7.7 9 Oeste 13 Oeste 0 1004.1 -1.5 59
2019-01-30 23:00:00 7.9 11 Oeste 22 Oeste 0 1004.7 -1.1 60
2019-01-30 22:00:00 9 15 Oeste 21 Oeste 0 1005.2 -0.6 55
2019-01-30 21:00:00 9.9 17 Oeste 26 Oeste 0 1005.6 0.1 49
2019-01-30 20:00:00 10.3 18 Oeste 35 Oeste 0 1005.8 0.5 46
2019-01-30 19:00:00 11.1 19 Oeste 33 Oeste 0 1005.8 0.3 45
2019-01-30 18:00:00 12 18 Oeste 32 Oeste 0 1005.5 -0.1 44
2019-01-30 17:00:00 13.3 27 Noroeste 41 Oeste 0 1005.3 -1.1 39
2019-01-30 16:00:00 14.1 30 Oeste 42 Oeste 0 1005.5 -1.7 40
2019-01-30 15:00:00 14.4 26 Noroeste 39 Noroeste 0 1005.6 -2.5 38
2019-01-30 14:00:00 14.4 28 Oeste 41 Oeste 0 1006.4 -1.6 37
2019-01-30 13:00:00 13.7 12 Noroeste 35 Oeste 0 1007.2 -0.9 40
2019-01-30 12:00:00 12.7 14 Noroeste 30 Noroeste 0 1008.1 0.3 44
2019-01-30 11:00:00 10.9 11 Noroeste 24 Noroeste 0 1008 0.6 51
2019-01-30 10:00:00 7.9 17 Norte 30 Norte 0 1008.1 1.6 63
2019-01-30 09:00:00 7.3 21 Norte 30 Norte 0 1007.8 1.7 63
2019-01-30 08:00:00 6.6 16 Norte 30 Norte 0 1007.4 2 67
2019-01-30 07:00:00 7.2 21 Norte 33 Noroeste 0 1006.5 1.3 65
2019-01-30 06:00:00 7.5 24 Norte 39 Noroeste 0 1006.1 1.3 63
2019-01-30 05:00:00 8 20 Noroeste 50 Noroeste 0 1005.4 1.1 61
2019-01-30 04:00:00 8.6 35 Noroeste 50 Noroeste 0 1005.2 1.5 59
2019-01-30 03:00:00 8.9 19 Noroeste 41 Norte 0 1004.8 1 59
2019-01-30 02:00:00 8.9 19 Oeste 41 Oeste 0 1004.3 0.4 63
2019-01-30 01:00:00 8.8 23 Noroeste 33 Noroeste 0 1003.7 -0.5 68
2019-01-30 00:00:00 6.8 10 Noroeste 15 Noroeste 0 1003.8 -0.4 81
2019-01-29 23:00:00 6.9 8 Norte 13 Norte 0 1003.9 -0.2 82
2019-01-29 22:00:00 7.9 10 Norte 17 Norte 0 1004.2 -0.5 78
2019-01-29 21:00:00 9.6 12 Oeste 21 Oeste 0 1004.2 -1.4 72
2019-01-29 20:00:00 9.4 13 Oeste 32 Oeste 0 1004.1 -2.1 73
2019-01-29 19:00:00 9.7 21 Oeste 37 Oeste 0 1004.7 -2.4 72
2019-01-29 18:00:00 10.1 18 Oeste 24 Oeste 0 1005.6 -2.4 69
2019-01-29 17:00:00 10.3 15 Oeste 22 Oeste 0 1006.2 -2.8 70
2019-01-29 16:00:00 10.5 18 Oeste 26 Oeste 0 1007.1 -3.2 68
2019-01-29 15:00:00 10 6 Norte 13 Norte 0 1008 -3.5 67
2019-01-29 14:00:00 9.7 9 Norte 17 Norte 0 1009 -2.6 66
2019-01-29 13:00:00 9.3 14 Norte 22 Norte 0 1010.3 -1.4 66
2019-01-29 12:00:00 8.5 16 Norte 24 Norte 0 1011.5 -0.6 68
2019-01-29 11:00:00 7.4 16 Norte 32 Norte 0 1011.6 -0.2 72
2019-01-29 10:00:00 6.6 19 Norte 30 Norte 0 1011.7 0 74
2019-01-29 09:00:00 6 21 Norte 30 Norte 0 1012.1 1.5 75
2019-01-29 08:00:00 6.1 16 Norte 26 Norte 0 1011.8 1.6 75
2019-01-29 07:00:00 6.7 17 Norte 21 Norte 0 1011.7 1.4 73
2019-01-29 06:00:00 7.3 8 Nordeste 17 Nordeste 0 1010.6 0.1 70
2019-01-29 05:00:00 7.8 5 Este 13 Norte 0 1010.2 -0.6 68
2019-01-29 04:00:00 7.6 7 Norte 21 Norte 0 1010.3 -0.4 70
2019-01-29 03:00:00 8 15 Norte 24 Norte 0 1010.5 -0.3 69
2019-01-29 02:00:00 8.3 13 Norte 24 Norte 0 1010.8 0.3 66
2019-01-29 01:00:00 8 13 Norte 28 Norte 0 1010.7 0.8 68
2019-01-29 00:00:00 8.2 16 Norte 22 Norte 0 1010.8 1.3 67
2019-01-28 23:00:00 9.1 3 Norte 11 Norte 0 1010.5 1.7 62
2019-01-28 22:00:00 9 0 Calma 13 Nordeste 0 1009.9 1.9 61
2019-01-28 21:00:00 10.3 10 Nordeste 22 Norte 0 1009.5 2.5 56
2019-01-28 20:00:00 10.3 4 Norte 17 Norte 0 1008.8 2.5 56
2019-01-28 19:00:00 11.3 8 Norte 18 Noroeste 0 1008 2.8 56
2019-01-28 18:00:00 13.3 18 Norte 39 Noroeste 0 1007 2.8 49
2019-01-28 17:00:00 15.1 21 Noroeste 35 Noroeste 0 1006.3 2 41
2019-01-28 16:00:00 15.3 28 Noroeste 52 Noroeste 0 1005.2 1.1 43
2019-01-28 15:00:00 15.1 32 Noroeste 52 Noroeste 0 1004.2 -0.2 46
2019-01-28 14:00:00 14.1 39 Norte 55 Noroeste 0 1004.3 -1 50
2019-01-28 13:00:00 13.8 35 Noroeste 54 Noroeste 0 1004.1 -2 50
2019-01-28 12:00:00 12.4 27 Norte 52 Noroeste 0 1004.4 -2.2 55
2019-01-28 11:00:00 11.5 17 Norte 28 Norte 0 1005.3 -2.3 57
2019-01-28 10:00:00 8.1 4 Noroeste 17 Sudeste 0 1006.1 -1.5 64
2019-01-28 09:00:00 7.4 3 Nordeste 18 Sudoeste 0 1006.6 -1.8 63
2019-01-28 08:00:00 7.1 18 Noroeste 28 Norte 0 1007.6 -1.2 61
2019-01-28 07:00:00 6.8 15 Norte 28 Norte 0 1007.6 -1.5 66
2019-01-28 06:00:00 7.4 17 Norte 28 Noroeste 0 1008.4 -0.6 62
2019-01-28 05:00:00 7.8 19 Norte 32 Norte 0 1008.8 -0.4 59
2019-01-28 04:00:00 7.8 21 Noroeste 52 Oeste 0 1009.1 -0.7 59
2019-01-28 03:00:00 8.1 22 Noroeste 32 Noroeste 0 1009 -0.1 56
2019-01-28 02:00:00 7.9 13 Norte 39 Noroeste 0 1009.2 0.2 58
2019-01-28 01:00:00 9 23 Noroeste 42 Noroeste 0 1009.8 1 53
2019-01-28 00:00:00 9.5 30 Noroeste 52 Noroeste 0 1009.1 0.9 51
2019-01-27 23:00:00 9.8 27 Noroeste 52 Noroeste 0 1009 1.7 49
2019-01-27 22:00:00 10.4 35 Noroeste 54 Noroeste 0 1008.8 2.2 47
2019-01-27 21:00:00 10.8 29 Noroeste 52 Noroeste 0 1008.2 3 47
2019-01-27 20:00:00 11.3 34 Noroeste 61 Noroeste 0 1007.3 3.3 47
2019-01-27 19:00:00 12.5 33 Noroeste 46 Noroeste 0 1006.6 2.5 43
2019-01-27 18:00:00 14 36 Noroeste 59 Noroeste 0 1005.2 0.9 40
2019-01-27 17:00:00 16 38 Noroeste 54 Noroeste 0 1004 -0.6 34
2019-01-27 16:00:00 16.3 26 Noroeste 48 Noroeste 0 1004.1 -0.9 38
2019-01-27 15:00:00 16.7 25 Noroeste 39 Noroeste 0 1004.3 -1.8 37
2019-01-27 14:00:00 14.8 12 Norte 37 Norte 0 1004.6 -2.3 47
2019-01-27 13:00:00 14.4 9 Sudeste 17 Este 0 1005 -1.7 58
2019-01-27 12:00:00 13.9 3 Nordeste 15 Norte 0 1006.1 -1.1 59
2019-01-27 11:00:00 10.2 12 Norte 18 Norte 0 1006.9 -0.1 72
2019-01-27 10:00:00 9.2 3 Norte 15 Norte 0 1006.7 -0.2 76
2019-01-27 09:00:00 6.3 14 Norte 26 Norte 0 1007.2 -0.4 85
2019-01-27 08:00:00 6.5 15 Norte 21 Norte 0 1007 -1.1 84
2019-01-27 07:00:00 6.5 14 Norte 18 Norte 0 1006.9 -2 85
2019-01-27 06:00:00 6.6 17 Norte 26 Norte 0 1007.6 -2.1 85
2019-01-27 05:00:00 6.7 16 Norte 22 Norte 0 1008.1 -2 86
2019-01-27 04:00:00 6.9 12 Norte 17 Norte 0 1008.9 -2.1 88
2019-01-27 03:00:00 7 14 Norte 18 Norte 0 1009.7 -2.1 90
2019-01-27 02:00:00 7 12 Norte 17 Norte 0 1010.1 -2 92
2019-01-27 01:00:00 8.2 5 Este 8 Este 0 1011 -1.4 92
2019-01-27 00:00:00 9 0 Calma 11 Oeste 0 1011.8 -1.2 89
2019-01-26 23:00:00 11 5 Oeste 15 Oeste 0 1012.1 -1.5 88
2019-01-26 22:00:00 11.9 9 Oeste 18 Oeste 0 1012.4 -1.5 90
2019-01-26 21:00:00 12.2 15 Sudoeste 26 Oeste 0 1013 -1.2 90
2019-01-26 20:00:00 11.8 12 Oeste 21 Oeste 0 1013.6 -1.2 88
2019-01-26 19:00:00 12.5 15 Oeste 26 Oeste 0 1013.9 -1.2 82
2019-01-26 18:00:00 13.2 17 Oeste 28 Oeste 0 1014.2 -1.6 77
2019-01-26 17:00:00 14.5 19 Sudoeste 39 Oeste 0 1014.8 -1.6 72
2019-01-26 16:00:00 15.3 23 Sudoeste 32 Oeste 0 1015.1 -2.1 66
2019-01-26 15:00:00 14.8 21 Sudoeste 28 Sudoeste 0 1015.8 -1.9 66
2019-01-26 14:00:00 14.9 14 Sudoeste 22 Sudoeste 0 1016.4 -1.3 64
2019-01-26 13:00:00 15.1 10 Sur 24 Norte 0 1017.2 -0.4 58
2019-01-26 12:00:00 13.3 19 Norte 32 Norte 0 1017.7 0 62
2019-01-26 11:00:00 11.7 20 Norte 28 Norte 0 1017.7 0.7 69
2019-01-26 10:00:00 10.1 18 Norte 32 Norte 0 1017.6 0.6 73
2019-01-26 09:00:00 7.8 18 Noroeste 26 Norte 0 1017.7 1.7 82
2019-01-26 08:00:00 7.3 10 Norte 22 Norte 0 1017 1.1 81
2019-01-26 07:00:00 7.2 16 Norte 30 Norte 0 1017 1.3 80
2019-01-26 06:00:00 6.8 18 Norte 22 Norte 0 1016 0.8 81
2019-01-26 05:00:00 6.7 5 Noroeste 15 Norte 0 1015.9 1.1 78
2019-01-26 04:00:00 6.7 7 Norte 21 Norte 0 1015.7 1 77
2019-01-26 03:00:00 6.3 4 Norte 13 Norte 0 1015.2 0.6 81
2019-01-26 02:00:00 6 13 Norte 17 Norte 0 1014.8 0.6 83
2019-01-26 01:00:00 6 9 Norte 13 Norte 0 1014.7 1.4 82
2019-01-26 00:00:00 6.3 3 Norte 17 Norte 0 1014.6 2 80
2019-01-25 23:00:00 6.6 8 Norte 17 Norte 0 1014.2 2.1 83
2019-01-25 22:00:00 7.7 14 Norte 37 Norte 0 1013.3 1.5 82
2019-01-25 21:00:00 8.7 11 Norte 42 Norte 0 1012.6 1.4 82
2019-01-25 20:00:00 10.9 9 Norte 24 Norte 0 1012.1 1.6 79
2019-01-25 19:00:00 11.7 14 Nordeste 28 Nordeste 0 1011.8 1.6 76
2019-01-25 18:00:00 11.9 19 Este 24 Este 0 1011.2 1.1 74
2019-01-25 17:00:00 13.8 13 Este 18 Sudeste 0 1010.5 -0.2 67
2019-01-25 16:00:00 14.4 8 Sur 17 Sur 0 1010.2 -1.1 61
2019-01-25 15:00:00 13.9 11 Sudoeste 17 Sudoeste 0 1010.1 -1.8 63
2019-01-25 14:00:00 13.8 5 Sur 15 Este 0 1010.7 -1.2 44
2019-01-25 13:00:00 12.7 9 Sudeste 17 Norte 0 1011.3 -0.4 49
2019-01-25 12:00:00 10.7 7 Norte 22 Norte 0 1011.9 0.7 44
2019-01-25 11:00:00 9.1 9 Norte 15 Norte 0 1011.9 1.3 44
2019-01-25 10:00:00 5.2 15 Norte 18 Norte 0 1011.7 1.5 49
2019-01-25 09:00:00 2.8 15 Norte 21 Norte 0 1011.2 1.4 56
2019-01-25 08:00:00 2.2 15 Norte 22 Norte 0 1010.6 0.8 55
2019-01-25 07:00:00 2.1 14 Norte 21 Norte 0 1010.2 0.3 53
2019-01-25 06:00:00 2.6 11 Norte 21 Norte 0 1009.8 0.2 49
2019-01-25 05:00:00 2.8 9 Norte 18 Norte 0 1009.8 0.5 46
2019-01-25 04:00:00 3.2 6 Norte 17 Norte 0 1009.9 0.5 41
2019-01-25 03:00:00 3.7 13 Norte 24 Norte 0 1009.6 0.5 41
2019-01-25 02:00:00 4.9 10 Norte 18 Norte 0 1009.3 0.3 31
2019-01-25 01:00:00 5.3 12 Norte 24 Norte 0 1009.4 0.6 31
2019-01-25 00:00:00 5.5 15 Norte 18 Norte 0 1009.1 0.6 32
2019-01-24 23:00:00 6.3 4 Noroeste 18 Norte 0 1009 1.2 30
2019-01-24 22:00:00 6.9 12 Norte 18 Norte 0 1008.8 2.3 30
2019-01-24 21:00:00 6.8 14 Norte 21 Noroeste 0 1008.5 2.7 33
2019-01-24 20:00:00 6.9 10 Noroeste 18 Norte 0 1007.8 3.2 35
2019-01-24 19:00:00 8.8 15 Norte 28 Norte 0 1006.5 2.6 29
2019-01-24 18:00:00 10.6 21 Noroeste 30 Noroeste 0 1005.8 2.6 26
2019-01-24 17:00:00 13 17 Noroeste 28 Noroeste 0 1004.6 1.8 24
2019-01-24 16:00:00 14.1 18 Noroeste 37 Noroeste 0 1003.9 0.8 18
2019-01-24 15:00:00 14.1 24 Noroeste 41 Norte 0 1003.2 0.2 19
2019-01-24 14:00:00 13.3 26 Norte 42 Norte 0 1002.8 -0.2 20
2019-01-24 13:00:00 12.2 26 Noroeste 52 Norte 0 1003.1 1.2 24
2019-01-24 12:00:00 10.7 36 Norte 52 Norte 0 1003 1.8 27
2019-01-24 11:00:00 9.7 37 Norte 48 Norte 0 1003 2.5 27
2019-01-24 10:00:00 8.3 34 Norte 67 Norte 0 1001.9 2.5 30
2019-01-24 09:00:00 7.1 33 Norte 50 Norte 0 1001.2 1.4 33
2019-01-24 08:00:00 6.6 24 Norte 39 Norte 0 1000.5 0.3 34
2019-01-24 07:00:00 6.2 17 Norte 39 Norte 0 999.4 -1 37
2019-01-24 06:00:00 5.1 17 Norte 24 Norte 0 999.8 -0.3 46
2019-01-24 05:00:00 4.3 13 Noroeste 18 Norte 0 1000.2 0.1 60
2019-01-24 04:00:00 3.9 4 Norte 17 Norte 0 1000.4 0.2 73
2019-01-24 03:00:00 4.7 12 Norte 21 Norte 0 1000.1 0.7 71
2019-01-24 02:00:00 5.5 13 Norte 22 Norte 0 1000.1 1.4 67
2019-01-24 01:00:00 6.1 13 Norte 18 Norte 0 1000.2 1.9 62
2019-01-24 00:00:00 6.5 11 Norte 17 Norte 0 999.4 1.8 63
2019-01-23 23:00:00 8 13 Norte 22 Norte 0 998.7 1.4 56
2019-01-23 22:00:00 9.1 15 Noroeste 41 Oeste 0 998.3 1.6 52
2019-01-23 21:00:00 10 21 Noroeste 33 Noroeste 0 997.6 2.4 48
2019-01-23 20:00:00 9.9 14 Norte 28 Norte 0 997.3 2.5 56
2019-01-23 19:00:00 10.9 14 Norte 42 Noroeste 0 996.7 2.2 56
2019-01-23 18:00:00 11.5 22 Noroeste 41 Noroeste 0 995.2 0.5 59
2019-01-23 17:00:00 12.5 26 Noroeste 41 Norte 0 994.8 -1 57
2019-01-23 16:00:00 13.4 28 Noroeste 39 Noroeste 0 994.5 -1.8 53
2019-01-23 15:00:00 13.3 12 Sudoeste 22 Norte 0 994.7 -3 56
2019-01-23 14:00:00 11.1 17 Norte 22 Norte 0 995.8 -2.2 63
2019-01-23 13:00:00 9.7 15 Norte 26 Norte 0 996.3 -2.2 69
2019-01-23 12:00:00 9.2 14 Nordeste 18 Nordeste 0 997.7 -1 76
2019-01-23 11:00:00 7.2 9 Norte 21 Norte 0 998 -1 85
2019-01-23 10:00:00 5.9 2 Nordeste 11 Norte 0 998.5 -1.4 86
2019-01-23 09:00:00 5.2 0 Calma 13 Sur 0 998.7 -2.5 81
2019-01-23 08:00:00 3.7 8 Norte 11 Norte 0 999 -3.1 86
2019-01-23 07:00:00 3.8 0 Calma 4 Este 0 999.9 -3 82
2019-01-23 06:00:00 4.1 5 Norte 9 Norte 0 1001.2 -2.4 81
2019-01-23 05:00:00 4.6 6 Norte 11 Noroeste 0 1002.1 -2.1 80
2019-01-23 04:00:00 5.7 6 Norte 18 Noroeste 0 1002.9 -1.9 76
2019-01-23 03:00:00 5.3 9 Noroeste 17 Norte 0 1003.6 -1.7 78
2019-01-23 02:00:00 5.5 12 Norte 18 Noroeste 0 1004.2 -1.6 78
2019-01-23 01:00:00 6.3 14 Norte 26 Norte 0 1004.8 -0.9 73
2019-01-23 00:00:00 6.3 16 Norte 24 Norte 0 1005.3 -0.8 73
2019-01-22 23:00:00 6.8 12 Norte 18 Norte 0 1005.8 -0.5 70
2019-01-22 22:00:00 7.8 12 Norte 18 Norte 0 1005.7 -0.8 71
2019-01-22 21:00:00 8.7 10 Noroeste 18 Oeste 0 1006.1 -1 70
2019-01-22 20:00:00 8.8 13 Oeste 22 Noroeste 0 1006.3 -1.2 69
2019-01-22 19:00:00 9.1 9 Noroeste 11 Noroeste 0 1006.5 -1.8 59
2019-01-22 18:00:00 9.1 4 Norte 11 Norte 0 1007.1 -2 57
2019-01-22 17:00:00 10 0 Calma 5 Noroeste 0 1007.5 -2.4 52
2019-01-22 16:00:00 9.9 0 Calma 11 Sur 0 1008.3 -3 53
2019-01-22 15:00:00 9.7 8 Sur 18 Sudoeste 0 1009.1 -4 52
2019-01-22 14:00:00 9.8 12 Norte 26 Norte 0 1009.9 -3.8 54
2019-01-22 13:00:00 8.1 18 Norte 26 Norte 0 1011.3 -2.5 58
2019-01-22 12:00:00 6.6 18 Norte 30 Norte 0 1013.1 -1.1 62
2019-01-22 11:00:00 6 25 Norte 32 Norte 0 1013.7 -0.4 64
2019-01-22 10:00:00 3.9 21 Norte 30 Norte 0 1013.8 -0.2 71
2019-01-22 09:00:00 2.6 18 Norte 26 Norte 0 1014.2 0.1 76
2019-01-22 08:00:00 2 20 Norte 30 Norte 0 1014.1 -0.7 79
2019-01-22 07:00:00 2.2 22 Norte 30 Norte 0 1014 -1.3 80
2019-01-22 06:00:00 2.5 21 Norte 28 Norte 0 1014.1 -1.9 80
2019-01-22 05:00:00 2.7 19 Norte 28 Norte 0 1014.8 -1.3 82
2019-01-22 04:00:00 3.4 24 Norte 32 Norte 0 1015.3 -1 82
2019-01-22 03:00:00 3.9 13 Norte 28 Norte 0 1016 -0.6 82
2019-01-22 02:00:00 3.6 13 Norte 24 Norte 0 1016.1 -0.4 86
2019-01-22 01:00:00 4.7 19 Norte 28 Norte 0 1016.3 -0.3 84
2019-01-22 00:00:00 5.7 20 Norte 30 Norte 0 1016.6 0.1 83
2019-01-21 23:00:00 5.9 15 Norte 21 Norte 0 1016.5 0 84
2019-01-21 22:00:00 5.6 13 Norte 18 Norte 0 1016.6 0.4 87
2019-01-21 21:00:00 6.4 3 Norte 13 Norte 0 1016.5 0.6 84
2019-01-21 20:00:00 7.9 11 Norte 13 Norte 0 1016.5 0.6 80
2019-01-21 19:00:00 10 7 Sudoeste 15 Sudoeste 0 1016.2 0.4 76
2019-01-21 18:00:00 10.8 7 Sudoeste 17 Sudoeste 0 1015.9 0.4 70
2019-01-21 17:00:00 11.8 13 Sudoeste 18 Sudoeste 0 1015.9 0 66
2019-01-21 16:00:00 12.4 11 Sudoeste 18 Sudoeste 0 1015.8 -0.7 61
2019-01-21 15:00:00 12.5 8 Norte 17 Norte 0 1015.5 -1.4 59
2019-01-21 14:00:00 11.7 9 Norte 21 Norte 0 1015.9 -1.1 63
2019-01-21 13:00:00 10.5 18 Norte 32 Norte 0 1016.5 0 66
2019-01-21 12:00:00 9.3 21 Norte 30 Norte 0 1016.9 0.9 73
2019-01-21 11:00:00 7.8 19 Norte 32 Norte 0 1017 1.4 79
2019-01-21 10:00:00 5.4 21 Norte 28 Norte 0 1016.5 1.3 87
2019-01-21 09:00:00 4.6 16 Norte 24 Norte 0 1016 1.3 89
2019-01-21 08:00:00 3.9 16 Norte 28 Norte 0 1015.6 1.2 92
2019-01-21 07:00:00 4.1 15 Norte 28 Norte 0 1015.2 0.7 92
2019-01-21 06:00:00 4.5 21 Norte 28 Norte 0 1014.7 0.3 91
2019-01-21 05:00:00 4.8 19 Norte 30 Norte 0 1014.4 -0.3 91
2019-01-21 04:00:00 4.8 19 Norte 22 Norte 0 1014.5 -0.1 92
2019-01-21 03:00:00 5 17 Norte 22 Norte 0 1014.4 -0.2 92
2019-01-21 02:00:00 5.2 16 Norte 24 Norte 0 1014.7 0.6 93
2019-01-21 01:00:00 5.5 14 Norte 24 Norte 0 1014.6 0.9 94
2019-01-21 00:00:00 5.3 15 Norte 21 Norte 0 1014.6 1.4 94
2019-01-20 23:00:00 5.9 14 Norte 18 Norte 0 1014.1 1.7 93
2019-01-20 22:00:00 6.8 12 Norte 15 Norte 0 1013.7 2.3 91
2019-01-20 21:00:00 7.4 12 Norte 15 Norte 0 1013.2 2.5 92
2019-01-20 20:00:00 7.7 9 Norte 15 Norte 0 1012.4 2.1 92
2019-01-20 19:00:00 9.3 6 Norte 24 Norte 0 1011.4 1.8 82
2019-01-20 18:00:00 10 12 Norte 33 Nordeste 0 1010.7 1.5 75
2019-01-20 17:00:00 10.3 13 Nordeste 42 Este 0 1010.3 1.1 79
2019-01-20 16:00:00 10.1 31 Nordeste 50 Nordeste 0 1009.6 0.2 82
2019-01-20 15:00:00 9.9 31 Este 42 Nordeste 0.1 1009.2 -0.4 82
2019-01-20 14:00:00 9.7 23 Nordeste 42 Nordeste 0 1009.2 0.2 82
2019-01-20 13:00:00 9.2 26 Nordeste 52 Este 0.5 1009.4 1.1 89
2019-01-20 12:00:00 8.7 17 Nordeste 37 Nordeste 2.5 1009.6 1.7 100
2019-01-20 11:00:00 8 18 Norte 46 Norte 2.5 1009 1.5 100
2019-01-20 10:00:00 7.3 17 Norte 30 Norte 1.9 1008.3 1 100
2019-01-20 09:00:00 6.6 20 Norte 30 Norte 5.5 1007.9 0.3 99
2019-01-20 08:00:00 6.9 18 Norte 26 Norte 2.3 1007.5 -0.7 99
2019-01-20 07:00:00 6.5 19 Norte 26 Norte 2.8 1007.3 -1.3 98
2019-01-20 06:00:00 6.6 18 Norte 24 Norte 1.3 1007.6 -1.8 96
2019-01-20 05:00:00 7.2 12 Norte 24 Norte 0.3 1008.2 -1.5 92
2019-01-20 04:00:00 6.8 18 Norte 26 Norte 0 1008.6 -2 91
2019-01-20 03:00:00 6.6 17 Norte 22 Norte 0.1 1009.4 -1.8 93
2019-01-20 02:00:00 6.8 17 Norte 28 Norte 0 1009.7 -1.8 90
2019-01-20 01:00:00 7.1 14 Norte 22 Norte 0.1 1010.6 -1.1 80
2019-01-20 00:00:00 7.1 15 Norte 21 Norte 0 1011.2 -0.7 77
2019-01-19 23:00:00 7.3 15 Norte 21 Norte 0 1011.5 -0.5 77
2019-01-19 22:00:00 6.8 12 Norte 17 Norte 0 1011.7 -0.4 86
2019-01-19 21:00:00 7.2 8 Norte 17 Norte 0 1011.9 -0.4 86
2019-01-19 20:00:00 7.9 0 Calma -- -- 0 1012 -0.7 82
2019-01-19 19:00:00 9.1 5 Oeste 11 Sudoeste 0 1012.1 -0.8 78
2019-01-19 18:00:00 10 8 Sudoeste 13 Oeste 0 1012.3 -0.9 74
2019-01-19 17:00:00 11.2 12 Sudoeste 17 Sur 0 1012.7 -1.2 70
2019-01-19 16:00:00 12.3 9 Sudoeste 15 Sur 0 1012.9 -2 62
2019-01-19 15:00:00 12.7 8 Sur 13 Sur 0 1013.2 -2.4 57
2019-01-19 14:00:00 12.4 4 Oeste 17 Norte 0 1013.9 -2 59
2019-01-19 13:00:00 10.8 14 Norte 24 Norte 0 1014.9 -0.7 62
2019-01-19 12:00:00 8.7 19 Norte 28 Norte 0 1015.6 0.4 67
2019-01-19 11:00:00 6.7 22 Norte 32 Norte 0 1015.9 0.9 73
2019-01-19 10:00:00 5.3 22 Norte 30 Norte 0 1015.6 1 78
2019-01-19 09:00:00 4 21 Norte 30 Norte 0 1015.2 0.6 82
2019-01-19 08:00:00 3.4 22 Norte 32 Norte 0 1015 0.4 84
2019-01-19 07:00:00 3.8 22 Norte 30 Norte 0 1014.6 -0.5 83
2019-01-19 06:00:00 3.6 22 Norte 33 Norte 0 1014.6 -0.7 84
2019-01-19 05:00:00 4.2 21 Norte 30 Norte 0 1014.6 -0.9 82
2019-01-19 04:00:00 4.5 20 Norte 32 Norte 0 1015.1 -0.8 82
2019-01-19 03:00:00 4.9 23 Norte 33 Norte 0 1015.3 -0.9 80
2019-01-19 02:00:00 5.6 16 Norte 33 Norte 0 1015.5 -0.7 78
2019-01-19 01:00:00 6 19 Norte 26 Norte 0 1015.9 -0.3 77
2019-01-19 00:00:00 6.4 20 Norte 24 Norte 0 1016.2 0.1 75